sensor_id;sensor_type;location;lat;lon;timestamp;P1;durP1;ratioP1;P2;durP2;ratioP2
3083;SDS011;1552;51.952;7.618;2023-04-15T00:00:13;11.10;;;6.90;;
3083;SDS011;1552;51.952;7.618;2023-04-15T00:02:40;12.23;;;7.03;;
3083;SDS011;1552;51.952;7.618;2023-04-15T00:05:06;11.07;;;7.50;;
3083;SDS011;1552;51.952;7.618;2023-04-15T00:07:33;14.37;;;7.03;;
3083;SDS011;1552;51.952;7.618;2023-04-15T00:10:00;9.87;;;7.03;;
3083;SDS011;1552;51.952;7.618;2023-04-15T00:12:28;12.20;;;7.20;;
3083;SDS011;1552;51.952;7.618;2023-04-15T00:14:54;11.23;;;7.60;;
3083;SDS011;1552;51.952;7.618;2023-04-15T00:17:22;10.57;;;6.80;;
3083;SDS011;1552;51.952;7.618;2023-04-15T00:19:49;12.17;;;7.33;;
3083;SDS011;1552;51.952;7.618;2023-04-15T00:22:15;13.63;;;7.33;;
3083;SDS011;1552;51.952;7.618;2023-04-15T00:24:42;12.97;;;7.00;;
3083;SDS011;1552;51.952;7.618;2023-04-15T00:27:09;11.33;;;6.93;;
3083;SDS011;1552;51.952;7.618;2023-04-15T00:29:36;9.73;;;6.67;;
3083;SDS011;1552;51.952;7.618;2023-04-15T00:32:02;9.03;;;6.53;;
3083;SDS011;1552;51.952;7.618;2023-04-15T00:34:29;11.90;;;7.17;;
3083;SDS011;1552;51.952;7.618;2023-04-15T00:36:55;9.73;;;6.97;;
3083;SDS011;1552;51.952;7.618;2023-04-15T00:39:22;12.90;;;6.73;;
3083;SDS011;1552;51.952;7.618;2023-04-15T00:41:48;10.63;;;6.90;;
3083;SDS011;1552;51.952;7.618;2023-04-15T00:44:16;9.57;;;7.10;;
3083;SDS011;1552;51.952;7.618;2023-04-15T00:46:43;10.63;;;7.10;;
3083;SDS011;1552;51.952;7.618;2023-04-15T00:49:10;11.47;;;8.00;;
3083;SDS011;1552;51.952;7.618;2023-04-15T00:51:37;13.27;;;6.63;;
3083;SDS011;1552;51.952;7.618;2023-04-15T00:54:03;10.40;;;6.80;;
3083;SDS011;1552;51.952;7.618;2023-04-15T00:56:30;10.40;;;7.17;;
3083;SDS011;1552;51.952;7.618;2023-04-15T00:58:56;14.30;;;7.40;;
3083;SDS011;1552;51.952;7.618;2023-04-15T01:01:25;9.33;;;7.40;;
3083;SDS011;1552;51.952;7.618;2023-04-15T01:03:51;9.90;;;7.40;;
3083;SDS011;1552;51.952;7.618;2023-04-15T01:06:17;10.87;;;6.53;;
3083;SDS011;1552;51.952;7.618;2023-04-15T01:08:44;14.73;;;7.00;;
3083;SDS011;1552;51.952;7.618;2023-04-15T01:11:11;11.60;;;7.50;;
3083;SDS011;1552;51.952;7.618;2023-04-15T01:13:37;11.47;;;7.03;;
3083;SDS011;1552;51.952;7.618;2023-04-15T01:16:04;14.80;;;7.93;;
3083;SDS011;1552;51.952;7.618;2023-04-15T01:18:32;12.47;;;7.30;;
3083;SDS011;1552;51.952;7.618;2023-04-15T01:20:59;10.80;;;7.57;;
3083;SDS011;1552;51.952;7.618;2023-04-15T01:23:25;13.63;;;8.00;;
3083;SDS011;1552;51.952;7.618;2023-04-15T01:25:53;11.33;;;7.57;;
3083;SDS011;1552;51.952;7.618;2023-04-15T01:28:20;10.83;;;7.40;;
3083;SDS011;1552;51.952;7.618;2023-04-15T01:30:46;10.73;;;7.70;;
3083;SDS011;1552;51.952;7.618;2023-04-15T01:33:15;12.13;;;7.67;;
3083;SDS011;1552;51.952;7.618;2023-04-15T01:35:41;14.07;;;8.30;;
3083;SDS011;1552;51.952;7.618;2023-04-15T01:38:08;11.47;;;7.90;;
3083;SDS011;1552;51.952;7.618;2023-04-15T01:40:35;12.67;;;8.23;;
3083;SDS011;1552;51.952;7.618;2023-04-15T01:43:03;10.03;;;7.80;;
3083;SDS011;1552;51.952;7.618;2023-04-15T01:45:29;14.33;;;8.13;;
3083;SDS011;1552;51.952;7.618;2023-04-15T01:47:55;12.60;;;8.47;;
3083;SDS011;1552;51.952;7.618;2023-04-15T01:50:22;10.23;;;7.63;;
3083;SDS011;1552;51.952;7.618;2023-04-15T01:52:49;14.80;;;7.70;;
3083;SDS011;1552;51.952;7.618;2023-04-15T01:55:15;13.03;;;7.90;;
3083;SDS011;1552;51.952;7.618;2023-04-15T01:57:41;12.67;;;8.00;;
3083;SDS011;1552;51.952;7.618;2023-04-15T02:00:09;10.67;;;7.90;;
3083;SDS011;1552;51.952;7.618;2023-04-15T02:02:36;12.23;;;7.57;;
3083;SDS011;1552;51.952;7.618;2023-04-15T02:05:03;11.33;;;8.17;;
3083;SDS011;1552;51.952;7.618;2023-04-15T02:07:29;10.27;;;7.27;;
3083;SDS011;1552;51.952;7.618;2023-04-15T02:09:56;12.20;;;8.47;;
3083;SDS011;1552;51.952;7.618;2023-04-15T02:12:22;13.37;;;9.10;;
3083;SDS011;1552;51.952;7.618;2023-04-15T02:14:48;8.87;;;7.03;;
3083;SDS011;1552;51.952;7.618;2023-04-15T02:17:16;11.97;;;8.20;;
3083;SDS011;1552;51.952;7.618;2023-04-15T02:19:42;12.60;;;7.83;;
3083;SDS011;1552;51.952;7.618;2023-04-15T02:22:09;11.80;;;7.70;;
3083;SDS011;1552;51.952;7.618;2023-04-15T02:24:42;12.67;;;8.13;;
3083;SDS011;1552;51.952;7.618;2023-04-15T02:27:08;15.10;;;8.43;;
3083;SDS011;1552;51.952;7.618;2023-04-15T02:29:35;11.63;;;8.47;;
3083;SDS011;1552;51.952;7.618;2023-04-15T02:32:01;13.37;;;8.50;;
3083;SDS011;1552;51.952;7.618;2023-04-15T02:34:28;11.50;;;8.03;;
3083;SDS011;1552;51.952;7.618;2023-04-15T02:36:55;13.77;;;8.53;;
3083;SDS011;1552;51.952;7.618;2023-04-15T02:39:21;11.77;;;7.93;;
3083;SDS011;1552;51.952;7.618;2023-04-15T02:41:48;13.10;;;8.37;;
3083;SDS011;1552;51.952;7.618;2023-04-15T02:44:16;13.17;;;8.93;;
3083;SDS011;1552;51.952;7.618;2023-04-15T02:46:44;13.57;;;8.90;;
3083;SDS011;1552;51.952;7.618;2023-04-15T02:49:12;12.70;;;8.30;;
3083;SDS011;1552;51.952;7.618;2023-04-15T02:51:41;13.23;;;9.33;;
3083;SDS011;1552;51.952;7.618;2023-04-15T02:54:07;12.77;;;8.40;;
3083;SDS011;1552;51.952;7.618;2023-04-15T02:56:33;12.33;;;8.40;;
3083;SDS011;1552;51.952;7.618;2023-04-15T02:59:00;11.23;;;8.33;;
3083;SDS011;1552;51.952;7.618;2023-04-15T03:01:26;11.40;;;8.53;;
3083;SDS011;1552;51.952;7.618;2023-04-15T03:03:52;13.70;;;9.17;;
3083;SDS011;1552;51.952;7.618;2023-04-15T03:06:18;12.63;;;8.73;;
3083;SDS011;1552;51.952;7.618;2023-04-15T03:08:46;13.17;;;8.53;;
3083;SDS011;1552;51.952;7.618;2023-04-15T03:11:13;13.63;;;8.93;;
3083;SDS011;1552;51.952;7.618;2023-04-15T03:13:40;13.03;;;8.87;;
3083;SDS011;1552;51.952;7.618;2023-04-15T03:16:07;11.00;;;8.67;;
3083;SDS011;1552;51.952;7.618;2023-04-15T03:18:33;14.77;;;9.63;;
3083;SDS011;1552;51.952;7.618;2023-04-15T03:20:59;12.13;;;8.43;;
3083;SDS011;1552;51.952;7.618;2023-04-15T03:23:26;13.27;;;9.10;;
3083;SDS011;1552;51.952;7.618;2023-04-15T03:25:54;14.87;;;9.27;;
3083;SDS011;1552;51.952;7.618;2023-04-15T03:28:22;13.23;;;8.03;;
3083;SDS011;1552;51.952;7.618;2023-04-15T03:30:48;14.47;;;9.03;;
3083;SDS011;1552;51.952;7.618;2023-04-15T03:33:14;12.53;;;9.13;;
3083;SDS011;1552;51.952;7.618;2023-04-15T03:35:41;12.40;;;9.00;;
3083;SDS011;1552;51.952;7.618;2023-04-15T03:38:07;14.57;;;9.50;;
3083;SDS011;1552;51.952;7.618;2023-04-15T03:40:33;14.33;;;10.03;;
3083;SDS011;1552;51.952;7.618;2023-04-15T03:43:01;13.77;;;8.67;;
3083;SDS011;1552;51.952;7.618;2023-04-15T03:45:27;12.37;;;8.97;;
3083;SDS011;1552;51.952;7.618;2023-04-15T03:47:54;13.90;;;8.60;;
3083;SDS011;1552;51.952;7.618;2023-04-15T03:50:20;12.13;;;8.73;;
3083;SDS011;1552;51.952;7.618;2023-04-15T03:52:47;15.13;;;9.70;;
3083;SDS011;1552;51.952;7.618;2023-04-15T03:55:13;13.67;;;8.93;;
3083;SDS011;1552;51.952;7.618;2023-04-15T03:57:39;13.57;;;8.93;;
3083;SDS011;1552;51.952;7.618;2023-04-15T04:00:08;13.50;;;9.10;;
3083;SDS011;1552;51.952;7.618;2023-04-15T04:02:34;12.93;;;9.20;;
3083;SDS011;1552;51.952;7.618;2023-04-15T04:05:00;11.17;;;8.47;;
3083;SDS011;1552;51.952;7.618;2023-04-15T04:07:27;13.77;;;9.47;;
3083;SDS011;1552;51.952;7.618;2023-04-15T04:09:53;14.70;;;9.77;;
3083;SDS011;1552;51.952;7.618;2023-04-15T04:12:20;14.37;;;9.17;;
3083;SDS011;1552;51.952;7.618;2023-04-15T04:14:46;16.97;;;9.40;;
3083;SDS011;1552;51.952;7.618;2023-04-15T04:17:14;11.73;;;9.57;;
3083;SDS011;1552;51.952;7.618;2023-04-15T04:19:40;14.40;;;10.20;;
3083;SDS011;1552;51.952;7.618;2023-04-15T04:22:06;13.93;;;10.00;;
3083;SDS011;1552;51.952;7.618;2023-04-15T04:24:32;14.90;;;10.17;;
3083;SDS011;1552;51.952;7.618;2023-04-15T04:26:59;15.63;;;10.03;;
3083;SDS011;1552;51.952;7.618;2023-04-15T04:29:26;15.10;;;9.53;;
3083;SDS011;1552;51.952;7.618;2023-04-15T04:31:52;15.23;;;9.97;;
3083;SDS011;1552;51.952;7.618;2023-04-15T04:34:20;14.07;;;10.07;;
3083;SDS011;1552;51.952;7.618;2023-04-15T04:36:46;14.53;;;10.70;;
3083;SDS011;1552;51.952;7.618;2023-04-15T04:39:12;16.03;;;9.90;;
3083;SDS011;1552;51.952;7.618;2023-04-15T04:41:39;14.07;;;9.97;;
3083;SDS011;1552;51.952;7.618;2023-04-15T04:44:05;13.63;;;9.50;;
3083;SDS011;1552;51.952;7.618;2023-04-15T04:46:32;12.47;;;9.47;;
3083;SDS011;1552;51.952;7.618;2023-04-15T04:48:58;16.30;;;9.63;;
3083;SDS011;1552;51.952;7.618;2023-04-15T04:51:25;14.23;;;9.83;;
3083;SDS011;1552;51.952;7.618;2023-04-15T04:53:52;12.53;;;9.10;;
3083;SDS011;1552;51.952;7.618;2023-04-15T04:56:19;15.20;;;10.20;;
3083;SDS011;1552;51.952;7.618;2023-04-15T04:58:45;15.97;;;10.03;;
3083;SDS011;1552;51.952;7.618;2023-04-15T05:01:11;13.87;;;9.50;;
3083;SDS011;1552;51.952;7.618;2023-04-15T05:03:38;16.33;;;10.77;;
3083;SDS011;1552;51.952;7.618;2023-04-15T05:06:04;15.67;;;10.47;;
3083;SDS011;1552;51.952;7.618;2023-04-15T05:08:34;14.60;;;9.87;;
3083;SDS011;1552;51.952;7.618;2023-04-15T05:11:00;17.10;;;11.00;;
3083;SDS011;1552;51.952;7.618;2023-04-15T05:13:27;16.80;;;10.13;;
3083;SDS011;1552;51.952;7.618;2023-04-15T05:15:54;14.67;;;10.40;;
3083;SDS011;1552;51.952;7.618;2023-04-15T05:18:20;16.53;;;10.67;;
3083;SDS011;1552;51.952;7.618;2023-04-15T05:20:47;13.90;;;10.10;;
3083;SDS011;1552;51.952;7.618;2023-04-15T05:23:14;17.33;;;11.77;;
3083;SDS011;1552;51.952;7.618;2023-04-15T05:25:42;16.10;;;10.73;;
3083;SDS011;1552;51.952;7.618;2023-04-15T05:28:08;17.00;;;11.13;;
3083;SDS011;1552;51.952;7.618;2023-04-15T05:30:34;17.80;;;12.20;;
3083;SDS011;1552;51.952;7.618;2023-04-15T05:33:01;18.70;;;10.80;;
3083;SDS011;1552;51.952;7.618;2023-04-15T05:35:27;15.77;;;10.83;;
3083;SDS011;1552;51.952;7.618;2023-04-15T05:37:53;16.10;;;11.40;;
3083;SDS011;1552;51.952;7.618;2023-04-15T05:40:20;17.20;;;10.90;;
3083;SDS011;1552;51.952;7.618;2023-04-15T05:42:47;17.57;;;11.90;;
3083;SDS011;1552;51.952;7.618;2023-04-15T05:45:14;18.30;;;11.50;;
3083;SDS011;1552;51.952;7.618;2023-04-15T05:47:40;17.27;;;11.70;;
3083;SDS011;1552;51.952;7.618;2023-04-15T05:50:06;19.70;;;11.60;;
3083;SDS011;1552;51.952;7.618;2023-04-15T05:52:33;18.57;;;11.37;;
3083;SDS011;1552;51.952;7.618;2023-04-15T05:54:59;18.27;;;11.50;;
3083;SDS011;1552;51.952;7.618;2023-04-15T05:57:26;18.60;;;12.10;;
3083;SDS011;1552;51.952;7.618;2023-04-15T05:59:53;17.67;;;11.67;;
3083;SDS011;1552;51.952;7.618;2023-04-15T06:02:21;16.30;;;11.83;;
3083;SDS011;1552;51.952;7.618;2023-04-15T06:04:47;16.77;;;11.43;;
3083;SDS011;1552;51.952;7.618;2023-04-15T06:07:13;16.67;;;10.97;;
3083;SDS011;1552;51.952;7.618;2023-04-15T06:09:40;20.67;;;11.47;;
3083;SDS011;1552;51.952;7.618;2023-04-15T06:12:06;18.97;;;11.17;;
3083;SDS011;1552;51.952;7.618;2023-04-15T06:14:36;18.77;;;12.07;;
3083;SDS011;1552;51.952;7.618;2023-04-15T06:17:03;17.03;;;11.13;;
3083;SDS011;1552;51.952;7.618;2023-04-15T06:19:30;19.33;;;12.63;;
3083;SDS011;1552;51.952;7.618;2023-04-15T06:21:56;18.10;;;11.50;;
3083;SDS011;1552;51.952;7.618;2023-04-15T06:24:23;18.50;;;11.80;;
3083;SDS011;1552;51.952;7.618;2023-04-15T06:26:50;16.27;;;10.97;;
3083;SDS011;1552;51.952;7.618;2023-04-15T06:29:17;18.93;;;11.43;;
3083;SDS011;1552;51.952;7.618;2023-04-15T06:31:43;24.03;;;11.70;;
3083;SDS011;1552;51.952;7.618;2023-04-15T06:34:11;20.37;;;12.37;;
3083;SDS011;1552;51.952;7.618;2023-04-15T06:36:39;19.67;;;11.63;;
3083;SDS011;1552;51.952;7.618;2023-04-15T06:39:05;20.20;;;12.20;;
3083;SDS011;1552;51.952;7.618;2023-04-15T06:41:31;20.73;;;11.93;;
3083;SDS011;1552;51.952;7.618;2023-04-15T06:43:58;17.77;;;11.57;;
3083;SDS011;1552;51.952;7.618;2023-04-15T06:46:24;19.77;;;12.63;;
3083;SDS011;1552;51.952;7.618;2023-04-15T06:48:51;16.30;;;11.83;;
3083;SDS011;1552;51.952;7.618;2023-04-15T06:51:19;18.77;;;11.90;;
3083;SDS011;1552;51.952;7.618;2023-04-15T06:53:45;17.93;;;12.10;;
3083;SDS011;1552;51.952;7.618;2023-04-15T06:56:11;16.53;;;11.47;;
3083;SDS011;1552;51.952;7.618;2023-04-15T06:58:38;20.20;;;11.67;;
3083;SDS011;1552;51.952;7.618;2023-04-15T07:01:04;17.97;;;11.63;;
3083;SDS011;1552;51.952;7.618;2023-04-15T07:03:31;20.17;;;12.43;;
3083;SDS011;1552;51.952;7.618;2023-04-15T07:05:57;19.90;;;12.77;;
3083;SDS011;1552;51.952;7.618;2023-04-15T07:08:25;17.13;;;11.87;;
3083;SDS011;1552;51.952;7.618;2023-04-15T07:10:51;16.10;;;10.73;;
3083;SDS011;1552;51.952;7.618;2023-04-15T07:13:18;17.10;;;11.20;;
3083;SDS011;1552;51.952;7.618;2023-04-15T07:15:44;16.97;;;11.00;;
3083;SDS011;1552;51.952;7.618;2023-04-15T07:18:11;18.23;;;11.57;;
3083;SDS011;1552;51.952;7.618;2023-04-15T07:20:38;16.23;;;11.37;;
3083;SDS011;1552;51.952;7.618;2023-04-15T07:23:05;15.87;;;10.93;;
3083;SDS011;1552;51.952;7.618;2023-04-15T07:25:32;20.77;;;11.93;;
3083;SDS011;1552;51.952;7.618;2023-04-15T07:27:58;18.53;;;12.07;;
3083;SDS011;1552;51.952;7.618;2023-04-15T07:30:26;17.00;;;11.03;;
3083;SDS011;1552;51.952;7.618;2023-04-15T07:32:53;16.03;;;10.77;;
3083;SDS011;1552;51.952;7.618;2023-04-15T07:35:20;16.83;;;11.67;;
3083;SDS011;1552;51.952;7.618;2023-04-15T07:37:46;18.50;;;11.67;;
3083;SDS011;1552;51.952;7.618;2023-04-15T07:40:12;17.10;;;11.73;;
3083;SDS011;1552;51.952;7.618;2023-04-15T07:42:41;15.67;;;10.90;;
3083;SDS011;1552;51.952;7.618;2023-04-15T07:45:08;18.57;;;12.20;;
3083;SDS011;1552;51.952;7.618;2023-04-15T07:47:34;18.33;;;12.17;;
3083;SDS011;1552;51.952;7.618;2023-04-15T07:50:01;18.63;;;11.87;;
3083;SDS011;1552;51.952;7.618;2023-04-15T07:52:27;15.67;;;11.10;;
3083;SDS011;1552;51.952;7.618;2023-04-15T07:54:53;20.03;;;11.97;;
3083;SDS011;1552;51.952;7.618;2023-04-15T07:57:20;17.90;;;12.10;;
3083;SDS011;1552;51.952;7.618;2023-04-15T07:59:47;15.67;;;10.97;;
3083;SDS011;1552;51.952;7.618;2023-04-15T08:02:14;15.57;;;10.37;;
3083;SDS011;1552;51.952;7.618;2023-04-15T08:04:40;15.13;;;10.40;;
3083;SDS011;1552;51.952;7.618;2023-04-15T08:07:07;16.23;;;11.00;;
3083;SDS011;1552;51.952;7.618;2023-04-15T08:09:33;19.57;;;10.40;;
3083;SDS011;1552;51.952;7.618;2023-04-15T08:11:59;17.57;;;11.30;;
3083;SDS011;1552;51.952;7.618;2023-04-15T08:14:26;15.30;;;10.80;;
3083;SDS011;1552;51.952;7.618;2023-04-15T08:16:54;16.93;;;10.53;;
3083;SDS011;1552;51.952;7.618;2023-04-15T08:19:20;13.63;;;9.53;;
3083;SDS011;1552;51.952;7.618;2023-04-15T08:21:47;17.43;;;10.70;;
3083;SDS011;1552;51.952;7.618;2023-04-15T08:24:13;16.37;;;10.00;;
3083;SDS011;1552;51.952;7.618;2023-04-15T08:26:39;17.60;;;10.23;;
3083;SDS011;1552;51.952;7.618;2023-04-15T08:29:06;17.37;;;10.93;;
3083;SDS011;1552;51.952;7.618;2023-04-15T08:31:32;18.03;;;10.40;;
3083;SDS011;1552;51.952;7.618;2023-04-15T08:34:00;16.87;;;10.23;;
3083;SDS011;1552;51.952;7.618;2023-04-15T08:36:26;17.30;;;11.37;;
3083;SDS011;1552;51.952;7.618;2023-04-15T08:38:52;18.17;;;11.17;;
3083;SDS011;1552;51.952;7.618;2023-04-15T08:41:20;14.90;;;10.10;;
3083;SDS011;1552;51.952;7.618;2023-04-15T08:43:48;15.37;;;10.40;;
3083;SDS011;1552;51.952;7.618;2023-04-15T08:46:16;14.30;;;10.47;;
3083;SDS011;1552;51.952;7.618;2023-04-15T08:48:43;15.13;;;10.17;;
3083;SDS011;1552;51.952;7.618;2023-04-15T08:51:13;17.33;;;10.97;;
3083;SDS011;1552;51.952;7.618;2023-04-15T08:53:40;15.40;;;9.97;;
3083;SDS011;1552;51.952;7.618;2023-04-15T08:56:07;14.33;;;8.77;;
3083;SDS011;1552;51.952;7.618;2023-04-15T08:58:34;13.37;;;9.30;;
3083;SDS011;1552;51.952;7.618;2023-04-15T09:01:01;14.70;;;9.47;;
3083;SDS011;1552;51.952;7.618;2023-04-15T09:03:27;15.10;;;9.90;;
3083;SDS011;1552;51.952;7.618;2023-04-15T09:05:54;13.20;;;8.73;;
3083;SDS011;1552;51.952;7.618;2023-04-15T09:08:22;13.30;;;8.77;;
3083;SDS011;1552;51.952;7.618;2023-04-15T09:10:49;11.87;;;8.43;;
3083;SDS011;1552;51.952;7.618;2023-04-15T09:13:15;12.07;;;7.93;;
3083;SDS011;1552;51.952;7.618;2023-04-15T09:15:41;13.07;;;8.53;;
3083;SDS011;1552;51.952;7.618;2023-04-15T09:18:08;12.90;;;8.93;;
3083;SDS011;1552;51.952;7.618;2023-04-15T09:20:37;12.00;;;8.37;;
3083;SDS011;1552;51.952;7.618;2023-04-15T09:23:10;16.87;;;9.10;;
3083;SDS011;1552;51.952;7.618;2023-04-15T09:25:38;11.37;;;8.10;;
3083;SDS011;1552;51.952;7.618;2023-04-15T09:28:06;12.40;;;8.60;;
3083;SDS011;1552;51.952;7.618;2023-04-15T09:30:32;11.63;;;8.27;;
3083;SDS011;1552;51.952;7.618;2023-04-15T09:33:00;10.60;;;8.30;;
3083;SDS011;1552;51.952;7.618;2023-04-15T09:35:27;11.23;;;7.87;;
3083;SDS011;1552;51.952;7.618;2023-04-15T09:38:00;13.17;;;7.93;;
3083;SDS011;1552;51.952;7.618;2023-04-15T09:40:30;12.33;;;8.20;;
3083;SDS011;1552;51.952;7.618;2023-04-15T09:42:59;13.77;;;7.87;;
3083;SDS011;1552;51.952;7.618;2023-04-15T09:45:26;14.13;;;8.87;;
3083;SDS011;1552;51.952;7.618;2023-04-15T09:47:52;12.07;;;8.50;;
3083;SDS011;1552;51.952;7.618;2023-04-15T09:50:19;13.73;;;7.93;;
3083;SDS011;1552;51.952;7.618;2023-04-15T09:52:46;14.40;;;8.00;;
3083;SDS011;1552;51.952;7.618;2023-04-15T09:55:13;12.13;;;7.93;;
3083;SDS011;1552;51.952;7.618;2023-04-15T09:57:40;14.00;;;9.27;;
3083;SDS011;1552;51.952;7.618;2023-04-15T10:00:10;12.47;;;8.20;;
3083;SDS011;1552;51.952;7.618;2023-04-15T10:02:36;13.00;;;8.73;;
3083;SDS011;1552;51.952;7.618;2023-04-15T10:05:05;14.43;;;8.70;;
3083;SDS011;1552;51.952;7.618;2023-04-15T10:07:32;14.40;;;8.27;;
3083;SDS011;1552;51.952;7.618;2023-04-15T10:09:59;12.07;;;8.03;;
3083;SDS011;1552;51.952;7.618;2023-04-15T10:12:26;11.30;;;7.63;;
3083;SDS011;1552;51.952;7.618;2023-04-15T10:14:55;12.90;;;8.10;;
3083;SDS011;1552;51.952;7.618;2023-04-15T10:17:25;13.97;;;8.67;;
3083;SDS011;1552;51.952;7.618;2023-04-15T10:19:52;11.63;;;8.10;;
3083;SDS011;1552;51.952;7.618;2023-04-15T10:22:19;10.77;;;7.83;;
3083;SDS011;1552;51.952;7.618;2023-04-15T10:24:46;11.00;;;7.57;;
3083;SDS011;1552;51.952;7.618;2023-04-15T10:27:13;10.07;;;7.23;;
3083;SDS011;1552;51.952;7.618;2023-04-15T10:29:40;12.10;;;7.23;;
3083;SDS011;1552;51.952;7.618;2023-04-15T10:32:07;11.80;;;8.10;;
3083;SDS011;1552;51.952;7.618;2023-04-15T10:34:35;12.47;;;8.37;;
3083;SDS011;1552;51.952;7.618;2023-04-15T10:37:02;10.13;;;6.97;;
3083;SDS011;1552;51.952;7.618;2023-04-15T10:39:39;10.30;;;7.40;;
3083;SDS011;1552;51.952;7.618;2023-04-15T10:42:06;10.80;;;7.37;;
3083;SDS011;1552;51.952;7.618;2023-04-15T10:44:32;9.67;;;6.80;;
3083;SDS011;1552;51.952;7.618;2023-04-15T10:47:03;9.87;;;6.63;;
3083;SDS011;1552;51.952;7.618;2023-04-15T10:49:30;9.17;;;6.63;;
3083;SDS011;1552;51.952;7.618;2023-04-15T10:51:58;8.23;;;6.50;;
3083;SDS011;1552;51.952;7.618;2023-04-15T10:54:29;8.90;;;6.40;;
3083;SDS011;1552;51.952;7.618;2023-04-15T10:57:05;11.93;;;7.03;;
3083;SDS011;1552;51.952;7.618;2023-04-15T10:59:33;10.27;;;6.40;;
3083;SDS011;1552;51.952;7.618;2023-04-15T11:02:01;10.07;;;6.30;;
3083;SDS011;1552;51.952;7.618;2023-04-15T11:07:14;8.73;;;5.77;;
3083;SDS011;1552;51.952;7.618;2023-04-15T11:09:40;8.00;;;5.57;;
3083;SDS011;1552;51.952;7.618;2023-04-15T11:12:07;7.20;;;5.63;;
3083;SDS011;1552;51.952;7.618;2023-04-15T11:14:35;5.90;;;5.07;;
3083;SDS011;1552;51.952;7.618;2023-04-15T11:17:04;7.50;;;5.47;;
3083;SDS011;1552;51.952;7.618;2023-04-15T11:19:37;7.37;;;5.33;;
3083;SDS011;1552;51.952;7.618;2023-04-15T11:22:07;7.70;;;5.00;;
3083;SDS011;1552;51.952;7.618;2023-04-15T11:24:35;6.97;;;5.20;;
3083;SDS011;1552;51.952;7.618;2023-04-15T11:27:01;5.50;;;4.50;;
3083;SDS011;1552;51.952;7.618;2023-04-15T11:29:28;5.70;;;4.20;;
3083;SDS011;1552;51.952;7.618;2023-04-15T11:32:00;5.63;;;4.27;;
3083;SDS011;1552;51.952;7.618;2023-04-15T11:34:27;5.40;;;4.37;;
3083;SDS011;1552;51.952;7.618;2023-04-15T11:36:55;6.87;;;4.40;;
3083;SDS011;1552;51.952;7.618;2023-04-15T11:39:22;5.93;;;4.67;;
3083;SDS011;1552;51.952;7.618;2023-04-15T11:41:49;6.60;;;4.10;;
3083;SDS011;1552;51.952;7.618;2023-04-15T11:44:16;4.40;;;3.67;;
3083;SDS011;1552;51.952;7.618;2023-04-15T11:46:42;5.20;;;4.00;;
3083;SDS011;1552;51.952;7.618;2023-04-15T11:49:09;4.50;;;3.83;;
3083;SDS011;1552;51.952;7.618;2023-04-15T11:51:35;5.57;;;4.23;;
3083;SDS011;1552;51.952;7.618;2023-04-15T11:54:02;5.70;;;3.87;;
3083;SDS011;1552;51.952;7.618;2023-04-15T11:56:28;5.80;;;3.67;;
3083;SDS011;1552;51.952;7.618;2023-04-15T11:58:56;5.00;;;4.10;;
3083;SDS011;1552;51.952;7.618;2023-04-15T12:01:29;7.73;;;4.33;;
3083;SDS011;1552;51.952;7.618;2023-04-15T12:03:56;4.90;;;3.70;;
3083;SDS011;1552;51.952;7.618;2023-04-15T12:06:30;5.47;;;3.80;;
3083;SDS011;1552;51.952;7.618;2023-04-15T12:08:59;4.07;;;3.43;;
3083;SDS011;1552;51.952;7.618;2023-04-15T12:11:26;6.03;;;3.73;;
3083;SDS011;1552;51.952;7.618;2023-04-15T12:13:53;4.33;;;3.57;;
3083;SDS011;1552;51.952;7.618;2023-04-15T12:16:22;4.43;;;4.03;;
3083;SDS011;1552;51.952;7.618;2023-04-15T12:18:49;5.60;;;3.50;;
3083;SDS011;1552;51.952;7.618;2023-04-15T12:21:17;5.10;;;3.20;;
3083;SDS011;1552;51.952;7.618;2023-04-15T12:23:47;3.90;;;3.50;;
3083;SDS011;1552;51.952;7.618;2023-04-15T12:26:14;5.67;;;3.50;;
3083;SDS011;1552;51.952;7.618;2023-04-15T12:28:40;3.70;;;3.10;;
3083;SDS011;1552;51.952;7.618;2023-04-15T12:31:06;3.90;;;2.87;;
3083;SDS011;1552;51.952;7.618;2023-04-15T12:33:34;5.30;;;3.83;;
3083;SDS011;1552;51.952;7.618;2023-04-15T12:36:01;4.50;;;3.20;;
3083;SDS011;1552;51.952;7.618;2023-04-15T12:38:28;6.10;;;3.97;;
3083;SDS011;1552;51.952;7.618;2023-04-15T12:40:55;4.70;;;3.80;;
3083;SDS011;1552;51.952;7.618;2023-04-15T12:43:21;3.93;;;3.30;;
3083;SDS011;1552;51.952;7.618;2023-04-15T12:45:49;3.60;;;3.10;;
3083;SDS011;1552;51.952;7.618;2023-04-15T12:48:15;5.90;;;4.00;;
3083;SDS011;1552;51.952;7.618;2023-04-15T12:50:43;4.67;;;4.00;;
3083;SDS011;1552;51.952;7.618;2023-04-15T12:53:09;6.17;;;3.67;;
3083;SDS011;1552;51.952;7.618;2023-04-15T12:55:36;7.47;;;4.53;;
3083;SDS011;1552;51.952;7.618;2023-04-15T12:58:02;6.10;;;4.07;;
3083;SDS011;1552;51.952;7.618;2023-04-15T13:00:28;4.33;;;3.60;;
3083;SDS011;1552;51.952;7.618;2023-04-15T13:02:55;4.17;;;3.40;;
3083;SDS011;1552;51.952;7.618;2023-04-15T13:05:21;4.03;;;3.20;;
3083;SDS011;1552;51.952;7.618;2023-04-15T13:07:49;3.30;;;3.00;;
3083;SDS011;1552;51.952;7.618;2023-04-15T13:10:15;6.27;;;3.60;;
3083;SDS011;1552;51.952;7.618;2023-04-15T13:12:42;3.73;;;3.00;;
3083;SDS011;1552;51.952;7.618;2023-04-15T13:15:10;3.53;;;2.90;;
3083;SDS011;1552;51.952;7.618;2023-04-15T13:17:37;4.00;;;3.40;;
3083;SDS011;1552;51.952;7.618;2023-04-15T13:20:04;6.20;;;3.33;;
3083;SDS011;1552;51.952;7.618;2023-04-15T13:22:30;3.90;;;3.30;;
3083;SDS011;1552;51.952;7.618;2023-04-15T13:24:58;3.73;;;3.13;;
3083;SDS011;1552;51.952;7.618;2023-04-15T13:27:25;3.70;;;3.03;;
3083;SDS011;1552;51.952;7.618;2023-04-15T13:29:53;5.97;;;3.43;;
3083;SDS011;1552;51.952;7.618;2023-04-15T13:32:19;4.33;;;3.17;;
3083;SDS011;1552;51.952;7.618;2023-04-15T13:34:46;3.20;;;2.60;;
3083;SDS011;1552;51.952;7.618;2023-04-15T13:37:12;5.40;;;3.23;;
3083;SDS011;1552;51.952;7.618;2023-04-15T13:39:38;3.63;;;3.10;;
3083;SDS011;1552;51.952;7.618;2023-04-15T13:42:06;3.23;;;2.77;;
3083;SDS011;1552;51.952;7.618;2023-04-15T13:44:32;3.57;;;2.80;;
3083;SDS011;1552;51.952;7.618;2023-04-15T13:46:59;3.83;;;3.07;;
3083;SDS011;1552;51.952;7.618;2023-04-15T13:49:25;4.13;;;3.37;;
3083;SDS011;1552;51.952;7.618;2023-04-15T13:51:52;8.37;;;3.40;;
3083;SDS011;1552;51.952;7.618;2023-04-15T13:54:18;3.80;;;3.40;;
3083;SDS011;1552;51.952;7.618;2023-04-15T13:56:44;4.10;;;3.23;;
3083;SDS011;1552;51.952;7.618;2023-04-15T13:59:12;5.70;;;3.53;;
3083;SDS011;1552;51.952;7.618;2023-04-15T14:01:38;3.77;;;3.00;;
3083;SDS011;1552;51.952;7.618;2023-04-15T14:04:05;4.17;;;3.33;;
3083;SDS011;1552;51.952;7.618;2023-04-15T14:06:31;4.23;;;3.57;;
3083;SDS011;1552;51.952;7.618;2023-04-15T14:08:58;4.53;;;3.37;;
3083;SDS011;1552;51.952;7.618;2023-04-15T14:11:24;3.77;;;3.40;;
3083;SDS011;1552;51.952;7.618;2023-04-15T14:13:50;3.83;;;3.47;;
3083;SDS011;1552;51.952;7.618;2023-04-15T14:16:18;5.13;;;3.97;;
3083;SDS011;1552;51.952;7.618;2023-04-15T14:18:44;4.63;;;3.73;;
3083;SDS011;1552;51.952;7.618;2023-04-15T14:21:11;6.03;;;3.87;;
3083;SDS011;1552;51.952;7.618;2023-04-15T14:23:37;4.83;;;3.40;;
3083;SDS011;1552;51.952;7.618;2023-04-15T14:26:03;4.77;;;4.00;;
3083;SDS011;1552;51.952;7.618;2023-04-15T14:28:30;6.80;;;4.27;;
3083;SDS011;1552;51.952;7.618;2023-04-15T14:30:57;4.80;;;4.40;;
3083;SDS011;1552;51.952;7.618;2023-04-15T14:33:25;8.83;;;5.93;;
3083;SDS011;1552;51.952;7.618;2023-04-15T14:35:51;6.50;;;5.30;;
3083;SDS011;1552;51.952;7.618;2023-04-15T14:38:17;5.00;;;4.37;;
3083;SDS011;1552;51.952;7.618;2023-04-15T14:40:46;6.13;;;4.27;;
3083;SDS011;1552;51.952;7.618;2023-04-15T14:43:12;4.57;;;3.97;;
3083;SDS011;1552;51.952;7.618;2023-04-15T14:45:39;7.43;;;4.73;;
3083;SDS011;1552;51.952;7.618;2023-04-15T14:48:05;5.70;;;5.10;;
3083;SDS011;1552;51.952;7.618;2023-04-15T14:50:35;5.93;;;4.50;;
3083;SDS011;1552;51.952;7.618;2023-04-15T14:53:01;4.97;;;4.23;;
3083;SDS011;1552;51.952;7.618;2023-04-15T14:55:28;5.17;;;4.37;;
3083;SDS011;1552;51.952;7.618;2023-04-15T14:57:54;5.13;;;3.93;;
3083;SDS011;1552;51.952;7.618;2023-04-15T15:00:20;5.37;;;4.27;;
3083;SDS011;1552;51.952;7.618;2023-04-15T15:02:48;4.30;;;3.90;;